Clover Valley, Nevada Weather observations

Data are for 10 minute period ending at time listed.
 Day   Time   Solar   Ave.   Ave.  Ave.  Vector  Max.   Baro.   Total    
  of    of     Rad.   Air    Rel.  Wind   Wind   Wind  Press.  Precip.   
Year   Day            Temp.  Hum.  Speed  Dir.   Gust                    
2016   (PST)  Kw/m2    F      %     mph   deg.    mph    mb.     in.     
-------------------------------------------------------------------------
 176    6:20   0.32   68.8    25   16.9   251    23.2   828.6    0.00 
 176    6:30   0.35   69.3    24   14.0   251    20.6   828.7    0.00 
 176    6:40   0.38   70.0    22   13.1   260    19.4   828.7    0.00 
 176    6:50   0.41   70.0    21   13.8   256    21.3   828.7    0.00 
 176    7:00   0.44   70.1    23   14.3   247    21.0   828.8    0.00 
 176    7:10   0.47   70.8    21   12.5   257    18.9   828.9    0.00 
 176    7:20   0.50   70.5    22   10.6   271    17.1   828.9    0.00 
 176    7:30   0.53   70.0    25   11.5   276    21.1   828.9    0.00 
 176    7:40   0.56   69.9    25   11.5   273    22.3   828.9    0.00 
 176    7:50   0.58   70.0    26   11.6   247    17.7   829.0    0.00 
 176    8:00   0.61   69.8    26   14.3   230    26.2   829.0    0.00 
 176    8:10   0.64   70.2    26   13.3   232    21.0   828.9    0.00 
 176    8:20   0.66   70.2    26   11.8   243    19.7   829.0    0.00 
 176    8:30   0.69   70.7    26   16.0   233    20.6   828.9    0.00 
 176    8:40   0.72   70.9    26   11.8   237    17.5   829.0    0.00 
 176    8:50   0.74   71.3    26   10.6   214    15.4   829.0    0.00 
 176    9:00   0.76   71.2    27   13.6   218    25.7   829.0    0.00 
 176    9:10   0.79   71.4    27   13.5   228    21.6   829.1    0.00 
 176    9:20   0.81   71.4    26   10.6   232    20.0   829.1    0.00 
 176    9:30   0.82   71.9    25    8.7   254    22.4   829.1    0.00 
 176    9:40   0.84   72.4    26   10.1   243    15.6   829.1    0.00 
 176    9:50   0.86   72.6    25    9.9   207    15.6   829.1    0.00 
 176   10:00   0.87   72.6    25   11.0   279    17.3   829.0    0.00 
 176   10:10   0.89   72.5    24    7.4   268    15.4   829.2    0.00 
 176   10:20   0.90   71.8    28    8.3   292    18.3   829.1    0.00 
 176   10:30   0.91   72.0    27    8.0   293    16.5   829.2    0.00 
 176   10:40   0.92   72.1    27   11.3   289    29.3   829.2    0.00 
 176   10:50   0.94   72.3    28    9.9   287    26.9   829.2    0.00 
 176   11:00   0.94   73.4    23   19.1   260    29.3   829.1    0.00 
 176   11:10   0.95   73.7    22   17.5   263    27.4   829.1    0.00 
 176   11:20   0.95   74.0    24   10.6   253    25.7   829.0    0.00 
 176   11:30   0.95   74.0    23   13.9   264    23.8   829.1    0.00 
 176   11:40   0.97   74.8    24   13.7   271    23.0   828.9    0.00 
 176   11:50   0.96   74.2    23   12.7   263    20.5   829.0    0.00 
 176   12:00   0.95   75.4    21   13.1   238    23.8   828.9    0.00 
 176   12:10   0.96   75.3    21   15.5   262    26.9   828.9    0.00 
 176   12:20   0.94   75.1    20   13.2   254    28.2   829.0    0.00 
 176   12:30   0.95   76.0    21   10.9   264    19.3   829.0    0.00 
 176   12:40   0.93   75.3    20   14.6   268    23.8   828.9    0.00 
 176   12:50   0.92   76.1    18   18.8   256    33.0   828.9    0.00 
 176   13:00   0.91   76.7    18   16.1   272    25.8   828.8    0.00 
 176   13:10   0.90   75.5    19   17.2   279    26.1   828.8    0.00 
 176   13:20   0.89   76.9    17   14.7   269    25.8   828.8    0.00 
 176   13:30   0.88   77.8    18   16.3   257    26.6   828.6    0.00 
 176   13:40   0.87   77.3    16   17.5   264    25.9   828.6    0.00 
 176   13:50   0.85   77.8    16   11.1   253    19.7   828.5    0.00 
 176   14:00   0.83   77.4    16   13.6   271    24.7   828.4    0.00 
 176   14:10   0.77   77.8    16   11.1   266    17.3   828.5    0.00 
 176   14:20   0.78   78.3    16   13.1   257    25.4   828.3    0.00 
 176   14:30   0.77   75.9    19   10.3   301    18.4   828.4    0.00 
 176   14:40   0.72   77.8    16   11.2   275    25.6   828.4    0.00 
 176   14:50   0.72   77.3    17   11.5   286    19.9   828.3    0.00 
 176   15:00   0.70   76.0    20    6.8   310    13.5   828.4    0.00 
 176   15:10   0.64   77.4    16   12.9   279    20.8   828.3    0.00 
 176   15:20   0.65   75.7    17    9.8   305    20.7   828.3    0.00 
 176   15:30   0.62   76.6    16    6.4   297    12.3   828.3    0.00 
 176   15:40   0.59   77.1    16    7.3   288    12.9   828.2    0.00 
 176   15:50   0.56   76.6    17   11.4   298    22.7   828.2    0.00 
 176   16:00   0.53   76.7    15   13.2   284    24.9   828.2    0.00 
 176   16:10   0.50   75.9    16   13.0   294    20.6   828.2    0.00 
 176   16:20   0.47   76.2    17    9.0   291    19.6   828.1    0.00 
 176   16:30   0.45   75.9    17    7.9   300    14.7   828.1    0.00 
 176   16:40   0.41   76.3    15    8.8   291    21.2   828.0    0.00 
 176   16:50   0.39   75.6    17    8.0   302    17.0   828.0    0.00 
 176   17:00   0.35   75.2    17    8.8   308    17.7   828.0    0.00 
 176   17:10   0.32   74.6    18    8.0   333    16.1   828.0    0.00 
 176   17:20   0.29   73.0    20    8.1   341    13.2   828.1    0.00 
 176   17:30   0.26   74.3    18    5.0   330     9.3   828.1    0.00 
 176   17:40   0.23   72.9    21    5.7   335    11.4   828.2    0.00 
 176   17:50   0.20   72.5    20    5.7   346    12.5   828.2    0.00 
 176   18:00   0.17   71.4    21    6.9   327    13.2   828.3    0.00 
 176   18:10   0.15   70.7    20    6.3   335    10.8   828.4    0.00 
 176   18:20   0.12   70.3    21    4.9   336     7.5   828.5    0.00 
 176   18:30   0.10   69.2    21    5.1   341     8.0   828.6    0.00 
 176   18:40   0.03   67.7    22    5.5   326     9.6   828.7    0.00 
 176   18:50   0.01   67.3    19    4.9   315     8.6   828.8    0.00 
 176   19:00   0.01   65.7    21    5.8   301    10.2   828.9    0.00 
 176   19:10   0.01   64.3    23    4.5   315     6.4   828.9    0.00 
 176   19:20   0.01   62.7    25    4.8   317    11.8   829.0    0.00 
 176   19:30   0.00   63.9    27    8.1   338    15.3   829.0    0.00 
 176   19:40   0.00   64.5    30   11.3   342    16.6   829.2    0.00 
 176   19:50   0.00   64.0    31   12.2   336    17.0   829.4    0.00 
 176   20:00   0.00   63.5    32   11.2   339    18.0   829.4    0.00 
 176   20:10   0.00   63.0    32    8.8     3    18.6   829.7    0.00 
 176   20:20   0.00   60.3    34    7.7    40    11.2   830.0    0.00 
 176   20:30   0.00   59.3    34    8.5    32    18.0   830.1    0.00 
 176   20:40   0.00   59.5    33    9.7    18    15.3   830.3    0.00 
 176   20:50   0.00   58.7    34    9.2     2    14.2   830.4    0.00 
 176   21:00   0.00   58.3    33    9.4   357    13.8   830.4    0.00 
 176   21:10   0.00   57.6    33    8.0     2    11.5   830.6    0.00 
 176   21:20   0.00   56.6    35    8.4   356    13.3   830.7    0.00 
 176   21:30   0.00   56.3    35   10.0   352    14.5   830.7    0.00 
 176   21:40   0.00   55.4    36    9.8   351    14.5   830.7    0.00 
 176   21:50   0.00   55.8    33    8.6   357    13.1   830.8    0.00 
 176   22:00   0.00   54.5    37    4.5   342     8.3   830.9    0.00 
 176   22:10   0.00   53.3    39    5.7   288     8.8   830.9    0.00 
 176   22:20   0.00   54.1    36    6.5   271     8.6   831.1    0.00 
 176   22:30   0.00   54.6    35    8.3   307    14.1   831.1    0.00 
 176   22:40   0.00   54.6    35   11.2   343    17.4   831.0    0.00 
 176   22:50   0.00   53.8    37   11.5   338    17.2   831.1    0.00 
 176   23:00   0.00   53.2    38   11.6   338    17.7   831.2    0.00 
 176   23:10   0.00   53.1    38   10.4   331    15.8   831.3    0.00 
 176   23:20   0.00   52.0    40    9.5   326    13.6   831.3    0.00 
 176   23:30   0.00   51.1    41    7.5   320    13.2   831.4    0.00 
 176   23:40   0.00   50.2    43    5.8   322     9.1   831.6    0.00 
 176   23:50   0.00   49.2    45    6.5   323     9.6   831.6    0.00 
 177    0:00   0.00   48.7    46    7.6   316    10.3   831.6    0.00 
 177    0:10   0.00   48.1    47    6.9   310     9.6   831.6    0.00 
 177    0:20   0.00   47.3    49    5.4   314     7.5   831.6    0.00 
 177    0:30   0.00   46.8    50    5.8   318     8.8   831.7    0.00 
 177    0:40   0.00   46.7    50    6.5   315     8.8   831.7    0.00 
 177    0:50   0.00   46.8    50    5.8   318     9.1   831.7    0.00 
 177    1:00   0.00   46.4    51    4.0   302     5.7   831.8    0.00 
 177    1:10   0.00   45.8    52    5.3   312     8.3   831.9    0.00 
 177    1:20   0.00   44.6    55    3.2   344     6.3   832.0    0.00 
 177    1:30   0.00   43.1    58    2.1     1     4.3   832.0    0.00 
 177    1:40   0.00   42.6    62    3.5   338     4.7   832.0    0.00 
 177    1:50   0.00   41.0    64    2.5    69     4.7   832.1    0.00 
 177    2:00   0.00   41.7    61    1.4   347     3.9   832.2    0.00 
 177    2:10   0.00   41.7    62    0.0     0     0.0   832.4    0.00 
 177    2:20   0.00   43.0    57    1.1     9     2.0   832.4    0.00 
 177    2:30   0.00   42.9    58    2.1   328     3.3   832.5    0.00 
 177    2:40   0.00   41.4    62    0.6   314     2.8   832.6    0.00 
 177    2:50   0.00   41.3    62    1.9   334     3.6   832.6    0.00 
 177    3:00   0.00   39.9    61    1.2    22     3.3   832.7    0.00 
 177    3:10   0.00   39.6    62    1.4    35     3.1   832.9    0.00 
 177    3:20   0.00   39.2    66    0.0     0     0.0   832.9    0.00 
 177    3:30   0.00   39.3    62    0.7     7     2.2   833.0    0.00 
 177    3:40   0.00   40.1    62    2.8   333     4.4   833.2    0.00 
 177    3:50   0.00   39.6    64    2.0   317     4.5   833.3    0.00 
 177    4:00   0.00   38.8    67    2.4   284     4.1   833.3    0.00 
 177    4:10   0.00   39.3    63    3.0   347     7.0   833.4    0.00 
 177    4:20   0.01   34.9    70    2.1    82     4.4   833.6    0.00 
 177    4:30   0.03   34.8    71    0.9    92     2.5   833.6    0.00 
 177    4:40   0.04   37.6    67    0.0     0     0.0   833.7    0.00 
 177    4:50   0.07   38.7    66    0.7    11     3.2   833.7    0.00 
 177    5:00   0.09   39.3    71    0.5     5     1.7   833.9    0.00 
 177    5:10   0.11   41.7    68    0.6    40     1.9   833.9    0.00 
 177    5:20   0.13   44.0    65    1.6   288     2.8   834.0    0.00 
 177    5:30   0.16   45.8    55    2.2   288     3.1   834.0    0.00 
 177    5:40   0.19   47.8    46    0.8   256     1.7   833.9    0.00 
 177    5:50   0.22   49.8    42    1.1   239     2.3   833.9    0.00 
 177    6:00   0.24   51.3    39    1.6   220     2.8   833.9    0.00 
 177    6:10   0.28   51.4    39    2.1   281     3.2   834.0    0.00 

Return to Clover Valley graphs page.


Western Regional Climate Center,wrcc@dri.edu